createdAt,value
2019-05-28T00:00:02.248Z,8.20
2019-05-28T00:00:56.290Z,8.70
2019-05-28T00:01:56.288Z,8.80
2019-05-28T00:02:56.404Z,8.50
2019-05-28T00:03:56.306Z,8.50
2019-05-28T00:04:56.288Z,8.20
2019-05-28T00:05:56.283Z,8.10
2019-05-28T00:06:56.278Z,8.50
2019-05-28T00:07:56.277Z,7.90
2019-05-28T00:08:56.277Z,8.50
2019-05-28T00:09:56.277Z,8.10
2019-05-28T00:10:56.273Z,7.70
2019-05-28T00:11:56.276Z,7.70
2019-05-28T00:12:56.271Z,7.50
2019-05-28T00:13:56.276Z,7.70
2019-05-28T00:14:56.267Z,7.80
2019-05-28T00:15:56.264Z,7.40
2019-05-28T00:16:56.262Z,7.80
2019-05-28T00:17:56.268Z,7.70
2019-05-28T00:18:56.255Z,9.00
2019-05-28T00:19:56.254Z,7.60
2019-05-28T00:20:56.254Z,7.00
2019-05-28T00:21:56.253Z,6.70
2019-05-28T00:22:56.253Z,7.20
2019-05-28T00:23:56.249Z,7.40
2019-05-28T00:24:56.249Z,6.70
2019-05-28T00:25:56.244Z,6.80
2019-05-28T00:26:56.240Z,7.30
2019-05-28T00:27:56.242Z,7.70
2019-05-28T00:28:56.238Z,8.60
2019-05-28T00:29:56.235Z,6.10
2019-05-28T00:30:56.231Z,6.10
2019-05-28T00:31:56.235Z,7.30
2019-05-28T00:32:56.230Z,6.00
2019-05-28T00:33:56.225Z,6.60
2019-05-28T00:34:56.255Z,5.90
2019-05-28T00:35:56.222Z,6.40
2019-05-28T00:36:56.221Z,6.10
2019-05-28T00:37:56.218Z,7.60
2019-05-28T00:38:56.213Z,6.60
2019-05-28T00:39:56.210Z,6.00
2019-05-28T00:40:56.209Z,7.00
2019-05-28T00:41:56.212Z,5.50
2019-05-28T00:42:56.202Z,5.80
2019-05-28T00:43:56.201Z,8.20
2019-05-28T00:44:56.199Z,6.10
2019-05-28T00:45:56.194Z,7.70
2019-05-28T00:46:56.198Z,7.20
2019-05-28T00:47:56.192Z,5.60
2019-05-28T00:48:56.188Z,5.20
2019-05-28T00:49:56.189Z,7.40
2019-05-28T00:50:56.184Z,7.80
2019-05-28T00:51:56.181Z,6.40
2019-05-28T00:52:56.178Z,8.20
2019-05-28T00:53:56.176Z,7.70
2019-05-28T00:54:56.180Z,5.80
2019-05-28T00:55:56.174Z,8.10
2019-05-28T00:56:56.173Z,5.60
2019-05-28T00:57:56.178Z,6.20
2019-05-28T00:58:56.164Z,6.80
2019-05-28T00:59:56.159Z,6.60
2019-05-28T01:00:56.156Z,6.30
2019-05-28T01:01:56.154Z,7.70
2019-05-28T01:02:56.154Z,7.80
2019-05-28T01:03:56.153Z,6.20
2019-05-28T01:04:56.148Z,7.20
2019-05-28T01:05:56.141Z,6.10
2019-05-28T01:06:56.137Z,7.50
2019-05-28T01:07:56.140Z,6.10
2019-05-28T01:08:56.133Z,7.20
2019-05-28T01:09:56.129Z,8.40
2019-05-28T01:10:56.131Z,8.30
2019-05-28T01:11:56.123Z,7.60
2019-05-28T01:12:56.123Z,9.20
2019-05-28T01:13:56.117Z,6.10
2019-05-28T01:14:56.116Z,7.40
2019-05-28T01:15:56.111Z,7.70
2019-05-28T01:16:56.111Z,8.20
2019-05-28T01:17:56.107Z,8.60
2019-05-28T01:18:56.101Z,5.70
2019-05-28T01:19:56.099Z,7.60
2019-05-28T01:20:56.097Z,6.40
2019-05-28T01:21:56.100Z,6.00
2019-05-28T01:22:56.092Z,6.70
2019-05-28T01:23:56.090Z,9.90
2019-05-28T01:24:56.086Z,8.40
2019-05-28T01:25:56.086Z,7.70
2019-05-28T01:26:56.079Z,6.70
2019-05-28T01:27:56.075Z,6.30
2019-05-28T01:28:56.070Z,7.00
2019-05-28T01:29:56.072Z,7.80
2019-05-28T01:31:00.636Z,7.90
2019-05-28T01:31:56.070Z,6.90
2019-05-28T01:32:56.060Z,10.30
2019-05-28T01:33:56.057Z,10.40
2019-05-28T01:34:56.053Z,7.80
2019-05-28T01:35:56.049Z,7.20
2019-05-28T01:36:56.048Z,6.50
2019-05-28T01:37:56.048Z,6.50
2019-05-28T01:38:56.039Z,9.20
2019-05-28T01:39:56.039Z,7.20
2019-05-28T01:40:56.037Z,6.80
2019-05-28T01:41:56.031Z,8.80
2019-05-28T01:42:56.028Z,8.20
2019-05-28T01:43:56.024Z,6.30
2019-05-28T01:44:56.022Z,6.50
2019-05-28T01:45:56.035Z,9.60
2019-05-28T01:46:56.016Z,9.80
2019-05-28T01:47:57.694Z,8.40
2019-05-28T01:48:56.010Z,6.80
2019-05-28T01:49:56.004Z,7.10
2019-05-28T01:50:56.004Z,7.40
2019-05-28T01:51:56.001Z,8.70
2019-05-28T01:52:55.996Z,8.30
2019-05-28T01:53:55.995Z,7.70
2019-05-28T01:54:55.990Z,9.20
2019-05-28T01:55:55.986Z,7.10
2019-05-28T01:56:55.982Z,8.90
2019-05-28T01:57:55.977Z,8.30
2019-05-28T01:58:55.981Z,9.10
2019-05-28T01:59:55.969Z,8.70
2019-05-28T02:01:11.655Z,6.90
2019-05-28T02:01:55.966Z,6.60
2019-05-28T02:02:55.975Z,10.30
2019-05-28T02:03:55.965Z,10.00
2019-05-28T02:04:55.966Z,9.40
2019-05-28T02:05:55.950Z,8.60
2019-05-28T02:06:55.948Z,9.20
2019-05-28T02:07:55.944Z,6.90
2019-05-28T02:08:55.965Z,8.50
2019-05-28T02:09:55.938Z,7.90
2019-05-28T02:10:55.945Z,7.70
2019-05-28T02:11:55.933Z,7.00
2019-05-28T02:12:55.929Z,10.20
2019-05-28T02:13:55.922Z,6.50
2019-05-28T02:14:55.918Z,8.30
2019-05-28T02:15:55.916Z,8.10
2019-05-28T02:16:55.918Z,10.00
2019-05-28T02:17:55.908Z,8.10
2019-05-28T02:18:55.906Z,9.40
2019-05-28T02:19:55.900Z,7.40
2019-05-28T02:20:55.910Z,8.40
2019-05-28T02:21:55.897Z,9.10
2019-05-28T02:22:55.898Z,9.10
2019-05-28T02:23:55.888Z,8.50
2019-05-28T02:24:55.885Z,8.00
2019-05-28T02:25:55.881Z,8.80
2019-05-28T02:26:55.880Z,8.70
2019-05-28T02:27:55.873Z,9.80
2019-05-28T02:28:55.870Z,10.60
2019-05-28T02:29:55.872Z,9.60
2019-05-28T02:30:55.866Z,8.60
2019-05-28T02:31:55.861Z,8.90
2019-05-28T02:32:55.877Z,7.40
2019-05-28T02:33:55.853Z,8.40
2019-05-28T02:34:55.848Z,6.90
2019-05-28T02:35:55.881Z,8.90
2019-05-28T02:36:55.842Z,6.30
2019-05-28T02:37:55.847Z,7.80
2019-05-28T02:38:55.837Z,10.30
2019-05-28T02:39:55.832Z,8.10
2019-05-28T02:40:55.833Z,8.40
2019-05-28T02:41:55.826Z,7.20
2019-05-28T02:42:55.821Z,8.80
2019-05-28T02:43:55.820Z,8.30
2019-05-28T02:44:55.815Z,7.80
2019-05-28T02:45:55.871Z,9.10
2019-05-28T02:46:55.809Z,8.10
2019-05-28T02:47:55.803Z,9.20
2019-05-28T02:48:55.801Z,13.90
2019-05-28T02:49:55.802Z,8.30
2019-05-28T02:50:55.795Z,10.20
2019-05-28T02:51:55.790Z,8.50
2019-05-28T02:52:55.788Z,7.80
2019-05-28T02:53:55.786Z,8.60
2019-05-28T02:54:55.778Z,8.50
2019-05-28T02:55:55.772Z,7.40
2019-05-28T02:56:55.775Z,10.40
2019-05-28T02:57:55.770Z,10.50
2019-05-28T02:58:55.762Z,9.50
2019-05-28T02:59:55.762Z,8.80
2019-05-28T03:00:55.757Z,10.10
2019-05-28T03:01:55.758Z,9.10
2019-05-28T03:02:55.753Z,8.60
2019-05-28T03:03:55.746Z,8.40
2019-05-28T03:04:55.744Z,9.30
2019-05-28T03:05:55.742Z,8.80
2019-05-28T03:06:55.735Z,9.10
2019-05-28T03:07:55.837Z,9.10
2019-05-28T03:08:55.729Z,9.60
2019-05-28T03:09:55.729Z,9.20
2019-05-28T03:11:03.028Z,7.10
2019-05-28T03:11:55.719Z,9.40
2019-05-28T03:12:55.749Z,9.30
2019-05-28T03:13:55.710Z,9.40
2019-05-28T03:14:55.702Z,8.50
2019-05-28T03:15:55.702Z,9.70
2019-05-28T03:16:55.701Z,9.00
2019-05-28T03:17:55.711Z,8.90
2019-05-28T03:18:55.689Z,8.50
2019-05-28T03:19:55.689Z,10.50
2019-05-28T03:20:55.682Z,9.90
2019-05-28T03:21:55.689Z,8.80
2019-05-28T03:22:55.676Z,8.30
2019-05-28T03:23:55.670Z,7.70
2019-05-28T03:24:55.668Z,7.20
2019-05-28T03:25:55.662Z,9.60
2019-05-28T03:26:55.660Z,8.50
2019-05-28T03:27:55.657Z,8.80
2019-05-28T03:28:55.650Z,7.50
2019-05-28T03:29:55.648Z,8.90
2019-05-28T03:30:55.645Z,8.80
2019-05-28T03:32:09.873Z,12.10
2019-05-28T03:32:55.641Z,10.60
2019-05-28T03:33:55.633Z,7.70
2019-05-28T03:34:55.624Z,8.80
2019-05-28T03:35:55.622Z,9.00
2019-05-28T03:36:55.617Z,6.40
2019-05-28T03:37:55.616Z,9.20
2019-05-28T03:38:55.624Z,7.80
2019-05-28T03:39:55.609Z,8.40
2019-05-28T03:40:55.602Z,10.30
2019-05-28T03:41:55.598Z,9.50
2019-05-28T03:42:55.595Z,10.40
2019-05-28T03:43:55.596Z,8.40
2019-05-28T03:44:55.589Z,8.30
2019-05-28T03:45:55.584Z,10.50
2019-05-28T03:46:55.579Z,9.60
2019-05-28T03:47:55.574Z,7.90
2019-05-28T03:48:55.571Z,10.00
2019-05-28T03:49:55.564Z,7.70
2019-05-28T03:50:55.562Z,7.70
2019-05-28T03:51:55.559Z,7.20
2019-05-28T03:52:55.554Z,9.50
2019-05-28T03:53:55.553Z,7.50
2019-05-28T03:54:55.546Z,8.50
2019-05-28T03:55:55.543Z,8.20
2019-05-28T03:56:55.538Z,11.40
2019-05-28T03:57:55.535Z,7.30
2019-05-28T03:58:55.530Z,7.90
2019-05-28T03:59:57.805Z,9.10
2019-05-28T04:00:55.523Z,8.40
2019-05-28T04:01:55.518Z,8.70
2019-05-28T04:02:55.519Z,8.60
2019-05-28T04:03:55.511Z,8.70
2019-05-28T04:04:55.507Z,9.60
2019-05-28T04:05:55.502Z,8.20
2019-05-28T04:06:55.499Z,9.40
2019-05-28T04:07:55.500Z,9.70
2019-05-28T04:08:55.498Z,8.00
2019-05-28T04:09:55.488Z,10.80
2019-05-28T04:10:55.482Z,9.70
2019-05-28T04:11:55.480Z,8.50
2019-05-28T04:12:55.476Z,8.70
2019-05-28T04:13:55.476Z,9.10
2019-05-28T04:14:55.470Z,10.50
2019-05-28T04:15:55.462Z,8.90
2019-05-28T04:16:55.461Z,8.70
2019-05-28T04:17:55.463Z,8.00
2019-05-28T04:18:55.454Z,9.10
2019-05-28T04:19:55.450Z,6.50
2019-05-28T04:20:55.444Z,9.30
2019-05-28T04:21:55.442Z,8.00
2019-05-28T04:22:55.444Z,8.50
2019-05-28T04:23:55.437Z,7.80
2019-05-28T04:24:55.434Z,8.90
2019-05-28T04:25:55.432Z,8.40
2019-05-28T04:26:55.421Z,8.20
2019-05-28T04:27:55.421Z,9.70
2019-05-28T04:28:55.416Z,8.40
2019-05-28T04:29:55.412Z,9.30
2019-05-28T04:30:55.412Z,9.80
2019-05-28T04:31:55.406Z,10.00
2019-05-28T04:32:55.403Z,9.10
2019-05-28T04:33:58.177Z,9.90
2019-05-28T04:34:55.402Z,10.00
2019-05-28T04:35:55.390Z,9.40
2019-05-28T04:36:55.384Z,8.40
2019-05-28T04:37:55.382Z,6.90
2019-05-28T04:38:55.380Z,7.50
2019-05-28T04:39:55.373Z,9.40
2019-05-28T04:40:55.374Z,7.00
2019-05-28T04:41:55.374Z,8.30
2019-05-28T04:42:55.362Z,8.00
2019-05-28T04:43:55.360Z,10.20
2019-05-28T04:44:55.359Z,9.60
2019-05-28T04:45:55.354Z,7.80
2019-05-28T04:46:55.347Z,9.80
2019-05-28T04:47:55.345Z,8.20
2019-05-28T04:48:55.342Z,7.10
2019-05-28T04:49:55.343Z,8.30
2019-05-28T04:50:55.342Z,9.30
2019-05-28T04:51:55.331Z,8.90
2019-05-28T04:52:55.328Z,8.10
2019-05-28T04:53:55.324Z,8.50
2019-05-28T04:54:55.319Z,7.70
2019-05-28T04:55:55.319Z,8.60
2019-05-28T04:56:55.315Z,7.80
2019-05-28T04:57:55.327Z,9.80
2019-05-28T04:58:55.309Z,7.90
2019-05-28T04:59:55.303Z,9.50
2019-05-28T05:00:55.302Z,8.50
2019-05-28T05:01:55.297Z,8.80
2019-05-28T05:03:00.166Z,7.50
2019-05-28T05:03:55.310Z,9.30
2019-05-28T05:04:55.286Z,8.10
2019-05-28T05:05:55.292Z,7.50
2019-05-28T05:06:55.283Z,9.50
2019-05-28T05:07:55.280Z,8.10
2019-05-28T05:08:55.275Z,7.90
2019-05-28T05:09:55.273Z,6.90
2019-05-28T05:10:55.270Z,7.90
2019-05-28T05:11:55.266Z,8.20
2019-05-28T05:12:55.260Z,9.10
2019-05-28T05:13:55.260Z,8.40
2019-05-28T05:14:55.287Z,8.30
2019-05-28T05:15:55.255Z,9.20
2019-05-28T05:16:55.254Z,10.70
2019-05-28T05:17:55.247Z,9.40
2019-05-28T05:18:55.247Z,10.70
2019-05-28T05:19:55.242Z,7.80
2019-05-28T05:20:55.245Z,7.20
2019-05-28T05:21:55.238Z,8.20
2019-05-28T05:22:55.233Z,9.00
2019-05-28T05:23:55.232Z,10.60
2019-05-28T05:24:55.227Z,6.90
2019-05-28T05:25:55.246Z,7.60
2019-05-28T05:26:55.228Z,7.70
2019-05-28T05:27:55.228Z,7.00
2019-05-28T05:28:55.219Z,7.80
2019-05-28T05:29:55.221Z,10.00
2019-05-28T05:30:55.213Z,7.70
2019-05-28T05:31:55.212Z,8.20
2019-05-28T05:32:55.213Z,8.40
2019-05-28T05:33:55.209Z,8.20
2019-05-28T05:34:55.206Z,8.70
2019-05-28T05:35:55.205Z,8.10
2019-05-28T05:36:55.206Z,6.40
2019-05-28T05:37:55.202Z,8.30
2019-05-28T05:38:55.201Z,8.50
2019-05-28T05:39:55.200Z,8.10
2019-05-28T05:40:55.194Z,6.80
2019-05-28T05:41:55.197Z,9.10
2019-05-28T05:42:55.192Z,10.10
2019-05-28T05:43:55.190Z,6.30
2019-05-28T05:44:55.193Z,7.60
2019-05-28T05:45:55.192Z,7.80
2019-05-28T05:46:55.193Z,8.80
2019-05-28T05:47:55.187Z,8.50
2019-05-28T05:48:55.189Z,10.50
2019-05-28T05:49:55.186Z,9.10
2019-05-28T05:50:55.183Z,9.20
2019-05-28T05:51:55.181Z,8.20
2019-05-28T05:52:55.179Z,8.10
2019-05-28T05:53:55.180Z,8.00
2019-05-28T05:54:55.180Z,10.90
2019-05-28T05:55:55.186Z,9.10
2019-05-28T05:56:55.174Z,12.00
2019-05-28T05:57:55.174Z,7.60
2019-05-28T05:58:55.173Z,9.60
2019-05-28T05:59:55.174Z,9.40
2019-05-28T06:00:55.179Z,8.80
2019-05-28T06:01:55.179Z,8.50
2019-05-28T06:02:55.165Z,13.00
2019-05-28T06:03:55.169Z,8.20
2019-05-28T06:04:55.165Z,10.10
2019-05-28T06:05:55.167Z,9.50
2019-05-28T06:06:55.165Z,10.50
2019-05-28T06:07:55.172Z,12.90
2019-05-28T06:08:55.161Z,15.80
2019-05-28T06:09:55.168Z,17.20
2019-05-28T06:10:55.163Z,18.30
2019-05-28T06:11:55.162Z,17.20
2019-05-28T06:12:55.168Z,15.20
2019-05-28T06:13:55.162Z,14.40
2019-05-28T06:14:55.174Z,13.80
2019-05-28T06:15:55.159Z,16.00
2019-05-28T06:16:55.158Z,11.80
2019-05-28T06:17:55.157Z,8.90
2019-05-28T06:18:55.186Z,13.40
2019-05-28T06:19:55.159Z,7.50
2019-05-28T06:21:11.134Z,9.50
2019-05-28T06:21:55.160Z,10.50
2019-05-28T06:22:55.167Z,8.80
2019-05-28T06:23:55.159Z,10.30
2019-05-28T06:24:55.162Z,10.40
2019-05-28T06:25:55.227Z,12.50
2019-05-28T06:26:55.159Z,10.50
2019-05-28T06:27:55.163Z,7.90
2019-05-28T06:28:55.183Z,11.30
2019-05-28T06:29:55.165Z,11.60
2019-05-28T06:30:55.185Z,11.40
2019-05-28T06:31:55.162Z,9.40
2019-05-28T06:32:55.166Z,11.60
2019-05-28T06:33:57.221Z,9.80
2019-05-28T06:34:55.166Z,8.60
2019-05-28T06:35:55.164Z,8.20
2019-05-28T06:36:55.174Z,9.40
2019-05-28T06:37:55.165Z,12.10
2019-05-28T06:38:55.164Z,9.60
2019-05-28T06:39:55.167Z,12.50
2019-05-28T06:40:55.165Z,11.10
2019-05-28T06:41:55.165Z,11.80
2019-05-28T06:42:55.165Z,10.20
2019-05-28T06:43:55.164Z,9.90
2019-05-28T06:44:55.237Z,9.80
2019-05-28T06:45:55.164Z,9.80
2019-05-28T06:46:55.172Z,13.90
2019-05-28T06:47:55.170Z,11.50
2019-05-28T06:48:55.165Z,11.20
2019-05-28T06:49:55.165Z,12.60
2019-05-28T06:50:55.170Z,9.90
2019-05-28T06:51:55.166Z,10.70
2019-05-28T06:52:55.167Z,12.20
2019-05-28T06:53:55.168Z,8.70
2019-05-28T06:54:55.295Z,12.00
2019-05-28T06:55:55.165Z,9.30
2019-05-28T06:56:55.173Z,9.40
2019-05-28T06:57:55.167Z,11.60
2019-05-28T06:58:55.167Z,9.30
2019-05-28T06:59:55.166Z,10.20
2019-05-28T07:00:55.269Z,9.20
2019-05-28T07:01:55.169Z,10.60
2019-05-28T07:02:55.170Z,10.10
2019-05-28T07:04:10.641Z,10.70
2019-05-28T07:04:55.171Z,9.50
2019-05-28T07:06:06.501Z,9.90
2019-05-28T07:06:55.166Z,7.90
2019-05-28T07:07:55.164Z,9.80
2019-05-28T07:08:55.165Z,10.20
2019-05-28T07:09:55.168Z,9.90
2019-05-28T07:10:58.141Z,8.80
2019-05-28T07:11:55.166Z,7.10
2019-05-28T07:12:55.166Z,7.70
2019-05-28T07:13:55.164Z,7.40
2019-05-28T07:14:55.229Z,8.00
2019-05-28T07:15:55.164Z,8.90
2019-05-28T07:16:55.167Z,8.70
2019-05-28T07:17:55.165Z,8.10
2019-05-28T07:18:55.163Z,6.20
2019-05-28T07:19:55.166Z,9.30
2019-05-28T07:20:55.166Z,8.10
2019-05-28T07:21:55.169Z,9.20
2019-05-28T07:22:55.166Z,6.70
2019-05-28T07:23:55.167Z,6.70
2019-05-28T07:24:55.167Z,7.50
2019-05-28T07:25:55.170Z,8.90
2019-05-28T07:26:55.173Z,6.10
2019-05-28T07:28:09.574Z,6.50
2019-05-28T07:28:55.169Z,6.80
2019-05-28T07:29:55.171Z,5.60
2019-05-28T07:30:55.169Z,6.10
2019-05-28T07:31:55.173Z,5.80
2019-05-28T07:32:55.171Z,6.60
2019-05-28T07:33:55.174Z,7.00
2019-05-28T07:34:55.173Z,5.60
2019-05-28T07:35:55.173Z,7.70
2019-05-28T07:36:55.175Z,5.00
2019-05-28T07:37:55.176Z,6.20
2019-05-28T07:38:55.178Z,7.00
2019-05-28T07:39:55.173Z,5.60
2019-05-28T07:40:55.177Z,6.10
2019-05-28T07:41:55.178Z,7.20
2019-05-28T07:42:55.177Z,6.90
2019-05-28T07:43:55.181Z,5.80
2019-05-28T07:44:55.179Z,7.40
2019-05-28T07:45:55.185Z,5.60
2019-05-28T07:46:55.181Z,7.20
2019-05-28T07:47:55.184Z,9.50
2019-05-28T07:48:55.185Z,7.20
2019-05-28T07:49:55.185Z,6.20
2019-05-28T07:50:55.185Z,7.30
2019-05-28T07:51:55.199Z,5.50
2019-05-28T07:52:55.195Z,7.40
2019-05-28T07:53:55.190Z,7.90
2019-05-28T07:54:55.189Z,5.80
2019-05-28T07:55:55.194Z,5.80
2019-05-28T07:56:55.200Z,5.60
2019-05-28T07:57:55.195Z,6.00
2019-05-28T07:58:55.197Z,5.70
2019-05-28T07:59:55.202Z,8.20
2019-05-28T08:00:55.199Z,6.80
2019-05-28T08:01:55.205Z,7.70
2019-05-28T08:02:55.207Z,7.30
2019-05-28T08:03:55.201Z,6.40
2019-05-28T08:04:55.208Z,7.20
2019-05-28T08:05:55.208Z,8.00
2019-05-28T08:06:55.525Z,8.20
2019-05-28T08:07:55.209Z,8.10
2019-05-28T08:08:55.409Z,7.90
2019-05-28T08:09:55.219Z,6.70
2019-05-28T08:10:55.216Z,6.30
2019-05-28T08:11:55.221Z,7.20
2019-05-28T08:12:55.220Z,5.90
2019-05-28T08:13:55.219Z,6.50
2019-05-28T08:14:55.222Z,6.00
2019-05-28T08:15:55.226Z,7.50
2019-05-28T08:16:55.225Z,7.00
2019-05-28T08:17:55.227Z,8.20
2019-05-28T08:18:55.227Z,7.40
2019-05-28T08:19:55.230Z,6.80
2019-05-28T08:20:55.231Z,6.90
2019-05-28T08:21:55.240Z,6.00
2019-05-28T08:22:55.236Z,7.30
2019-05-28T08:23:55.238Z,7.20
2019-05-28T08:24:55.241Z,6.70
2019-05-28T08:25:55.235Z,6.10
2019-05-28T08:26:55.246Z,5.50
2019-05-28T08:27:55.249Z,8.10
2019-05-28T08:28:55.248Z,5.30
2019-05-28T08:29:55.250Z,6.70
2019-05-28T08:30:55.253Z,6.70
2019-05-28T08:31:55.255Z,7.00
2019-05-28T08:32:55.260Z,5.40
2019-05-28T08:33:55.257Z,6.60
2019-05-28T08:35:04.918Z,5.40
2019-05-28T08:35:55.257Z,4.60
2019-05-28T08:37:05.415Z,5.90
2019-05-28T08:37:55.262Z,6.60
2019-05-28T08:38:55.263Z,8.20
2019-05-28T08:39:55.266Z,7.40
2019-05-28T08:40:55.264Z,8.40
2019-05-28T08:41:55.271Z,7.10
2019-05-28T08:42:55.285Z,5.70
2019-05-28T08:43:55.268Z,6.50
2019-05-28T08:44:55.267Z,6.40
2019-05-28T08:45:55.266Z,6.50
2019-05-28T08:46:55.267Z,7.50
2019-05-28T08:47:55.268Z,5.00
2019-05-28T08:48:55.270Z,6.60
2019-05-28T08:49:55.269Z,6.90
2019-05-28T08:50:55.271Z,6.90
2019-05-28T08:51:55.272Z,6.60
2019-05-28T08:52:55.274Z,5.40
2019-05-28T08:53:55.275Z,6.40
2019-05-28T08:54:55.272Z,6.60
2019-05-28T08:55:55.273Z,6.30
2019-05-28T08:56:55.270Z,5.40
2019-05-28T08:57:55.275Z,6.90
2019-05-28T08:58:55.271Z,8.30
2019-05-28T08:59:55.271Z,7.60
2019-05-28T09:00:55.274Z,7.30
2019-05-28T09:01:55.273Z,7.20
2019-05-28T09:02:55.272Z,7.50
2019-05-28T09:03:55.273Z,6.40
2019-05-28T09:04:55.291Z,5.00
2019-05-28T09:05:55.278Z,7.90
2019-05-28T09:06:55.279Z,6.70
2019-05-28T09:07:55.276Z,5.10
2019-05-28T09:08:55.277Z,6.40
2019-05-28T09:09:55.281Z,6.50
2019-05-28T09:10:55.277Z,7.70
2019-05-28T09:11:55.276Z,6.20
2019-05-28T09:12:55.278Z,5.00
2019-05-28T09:13:55.272Z,4.90
2019-05-28T09:14:56.647Z,6.20
2019-05-28T09:15:55.276Z,6.40
2019-05-28T09:16:55.275Z,4.90
2019-05-28T09:17:55.277Z,6.30
2019-05-28T09:18:55.277Z,6.70
2019-05-28T09:19:55.281Z,5.60
2019-05-28T09:20:55.319Z,8.60
2019-05-28T09:21:55.277Z,7.80
2019-05-28T09:22:55.279Z,6.50
2019-05-28T09:23:55.278Z,5.50
2019-05-28T09:24:55.281Z,6.00
2019-05-28T09:25:55.277Z,7.10
2019-05-28T09:26:55.280Z,10.00
2019-05-28T09:27:55.284Z,4.80
2019-05-28T09:28:55.907Z,6.90
2019-05-28T09:29:55.547Z,6.30
2019-05-28T09:30:55.289Z,6.00
2019-05-28T09:31:55.286Z,6.50
2019-05-28T09:32:55.313Z,6.50
2019-05-28T09:33:55.287Z,6.90
2019-05-28T09:34:55.284Z,6.30
2019-05-28T09:36:07.377Z,4.80
2019-05-28T09:36:55.288Z,5.70
2019-05-28T09:37:55.291Z,6.60
2019-05-28T09:38:55.288Z,6.60
2019-05-28T09:39:55.289Z,5.20
2019-05-28T09:40:55.290Z,4.20
2019-05-28T09:41:55.291Z,5.50
2019-05-28T09:42:55.292Z,6.10
2019-05-28T09:43:55.295Z,5.70
2019-05-28T09:44:55.297Z,6.20
2019-05-28T09:45:55.296Z,5.70
2019-05-28T09:46:55.300Z,4.60
2019-05-28T09:47:55.520Z,5.00
2019-05-28T09:48:55.294Z,5.20
2019-05-28T09:49:56.357Z,5.50
2019-05-28T09:50:55.296Z,4.90
2019-05-28T09:51:55.297Z,6.90
2019-05-28T09:52:55.636Z,5.40
2019-05-28T09:53:55.297Z,7.00
2019-05-28T09:54:55.300Z,8.10
2019-05-28T09:55:55.298Z,5.40
2019-05-28T09:56:55.311Z,5.50
2019-05-28T09:57:55.299Z,6.10
2019-05-28T09:58:55.317Z,7.00
2019-05-28T09:59:55.310Z,5.20
2019-05-28T10:00:58.617Z,5.40
2019-05-28T10:01:55.303Z,4.30
2019-05-28T10:02:55.312Z,8.00
2019-05-28T10:03:55.308Z,6.50
2019-05-28T10:04:55.304Z,6.50
2019-05-28T10:06:13.194Z,5.20
2019-05-28T10:06:55.361Z,6.20
2019-05-28T10:07:55.309Z,5.60
2019-05-28T10:08:55.306Z,4.90
2019-05-28T10:09:55.307Z,7.00
2019-05-28T10:10:55.308Z,5.80
2019-05-28T10:11:55.308Z,6.80
2019-05-28T10:12:55.321Z,6.60
2019-05-28T10:13:55.313Z,5.30
2019-05-28T10:14:55.313Z,6.50
2019-05-28T10:15:55.315Z,5.20
2019-05-28T10:16:55.313Z,5.40
2019-05-28T10:17:55.317Z,5.70
2019-05-28T10:18:55.317Z,8.10
2019-05-28T10:19:55.316Z,4.50
2019-05-28T10:20:55.317Z,6.30
2019-05-28T10:21:55.324Z,4.50
2019-05-28T10:22:55.324Z,5.00
2019-05-28T10:23:55.340Z,4.70
2019-05-28T10:24:55.321Z,7.70
2019-05-28T10:25:55.325Z,5.30
2019-05-28T10:26:55.322Z,5.40
2019-05-28T10:28:01.013Z,5.00
2019-05-28T10:28:55.326Z,4.90
2019-05-28T10:29:55.332Z,7.90
2019-05-28T10:30:55.327Z,4.70
2019-05-28T10:31:55.333Z,4.50
2019-05-28T10:32:55.332Z,4.70
2019-05-28T10:33:55.331Z,5.40
2019-05-28T10:35:03.665Z,7.20
2019-05-28T10:35:55.333Z,4.80
2019-05-28T10:36:55.338Z,5.60
2019-05-28T10:37:55.339Z,5.80
2019-05-28T10:38:55.338Z,5.90
2019-05-28T10:39:55.338Z,5.80
2019-05-28T10:40:55.340Z,5.20
2019-05-28T10:41:55.341Z,5.80
2019-05-28T10:42:55.344Z,6.70
2019-05-28T10:43:55.345Z,5.20
2019-05-28T10:44:55.344Z,6.00
2019-05-28T10:45:55.403Z,4.70
2019-05-28T10:46:55.344Z,4.80
2019-05-28T10:47:55.345Z,7.30
2019-05-28T10:48:55.348Z,6.30
2019-05-28T10:49:55.352Z,6.80
2019-05-28T10:50:55.348Z,5.50
2019-05-28T10:51:55.353Z,5.50
2019-05-28T10:52:55.351Z,6.50
2019-05-28T10:53:55.352Z,7.20
2019-05-28T10:54:55.352Z,6.10
2019-05-28T10:55:55.351Z,6.20
2019-05-28T10:56:55.352Z,5.30
2019-05-28T10:57:55.355Z,6.40
2019-05-28T10:58:55.356Z,5.40
2019-05-28T10:59:55.357Z,4.00
2019-05-28T11:00:55.355Z,6.20
2019-05-28T11:01:55.364Z,6.60
2019-05-28T11:02:55.365Z,4.90
2019-05-28T11:03:55.363Z,7.40
2019-05-28T11:04:55.389Z,6.60
2019-05-28T11:05:55.364Z,5.10
2019-05-28T11:06:55.363Z,3.80
2019-05-28T11:07:55.363Z,6.50
2019-05-28T11:08:55.369Z,5.10
2019-05-28T11:09:55.368Z,4.20
2019-05-28T11:10:55.369Z,5.50
2019-05-28T11:11:55.374Z,6.00
2019-05-28T11:12:55.369Z,7.20
2019-05-28T11:13:55.374Z,5.50
2019-05-28T11:14:55.373Z,5.70
2019-05-28T11:15:55.376Z,5.50
2019-05-28T11:16:55.374Z,6.20
2019-05-28T11:17:55.380Z,5.00
2019-05-28T11:18:55.380Z,4.90
2019-05-28T11:19:55.399Z,4.50
2019-05-28T11:20:55.376Z,6.20
2019-05-28T11:21:55.382Z,5.80
2019-05-28T11:22:55.383Z,4.00
2019-05-28T11:23:55.381Z,5.80
2019-05-28T11:24:55.382Z,4.90
2019-05-28T11:25:55.383Z,4.90
2019-05-28T11:26:55.383Z,5.60
2019-05-28T11:27:55.396Z,6.70
2019-05-28T11:28:55.389Z,6.40
2019-05-28T11:29:55.387Z,5.30
2019-05-28T11:30:55.391Z,5.60
2019-05-28T11:31:55.391Z,5.50
2019-05-28T11:32:55.387Z,5.50
2019-05-28T11:33:55.389Z,6.60
2019-05-28T11:34:55.390Z,6.90
2019-05-28T11:35:55.386Z,6.20
2019-05-28T11:37:08.931Z,4.10
2019-05-28T11:37:55.391Z,5.50
2019-05-28T11:38:55.392Z,5.90
2019-05-28T11:39:55.392Z,4.80
2019-05-28T11:40:55.396Z,6.40
2019-05-28T11:41:55.395Z,4.70
2019-05-28T11:42:55.403Z,5.90
2019-05-28T11:43:55.396Z,5.90
2019-05-28T11:44:55.396Z,4.80
2019-05-28T11:45:55.395Z,5.90
2019-05-28T11:46:55.437Z,5.60
2019-05-28T11:47:55.402Z,5.30
2019-05-28T11:48:55.398Z,5.70
2019-05-28T11:49:55.404Z,4.90
2019-05-28T11:50:55.401Z,5.60
2019-05-28T11:51:55.416Z,4.40
2019-05-28T11:52:55.406Z,5.70
2019-05-28T11:53:55.402Z,4.90
2019-05-28T11:54:55.403Z,4.30
2019-05-28T11:55:55.407Z,4.10
2019-05-28T11:56:55.402Z,6.70
2019-05-28T11:57:55.406Z,4.80
2019-05-28T11:58:55.410Z,4.70
2019-05-28T11:59:55.413Z,4.40
2019-05-28T12:00:55.410Z,5.50
2019-05-28T12:01:55.411Z,4.10
2019-05-28T12:02:55.410Z,4.70
2019-05-28T12:03:55.413Z,6.60
2019-05-28T12:04:55.417Z,6.80
2019-05-28T12:05:55.423Z,4.80
2019-05-28T12:06:55.414Z,8.40
2019-05-28T12:07:55.413Z,4.50
2019-05-28T12:08:55.422Z,6.00
2019-05-28T12:09:55.416Z,6.70
2019-05-28T12:10:55.420Z,4.80
2019-05-28T12:11:55.418Z,4.80
2019-05-28T12:12:55.420Z,6.50
2019-05-28T12:13:55.424Z,5.80
2019-05-28T12:14:55.423Z,6.00
2019-05-28T12:15:55.423Z,3.80
2019-05-28T12:16:55.430Z,6.00
2019-05-28T12:17:55.434Z,5.70
2019-05-28T12:18:58.313Z,5.30
2019-05-28T12:19:55.427Z,4.50
2019-05-28T12:20:55.431Z,5.10
2019-05-28T12:21:55.427Z,3.50
2019-05-28T12:23:10.464Z,6.30
2019-05-28T12:23:55.435Z,4.50
2019-05-28T12:24:55.436Z,5.40
2019-05-28T12:25:55.433Z,4.40
2019-05-28T12:26:55.464Z,6.10
2019-05-28T12:27:55.435Z,5.80
2019-05-28T12:28:55.442Z,5.30
2019-05-28T12:29:55.437Z,5.80
2019-05-28T12:30:55.437Z,4.40
2019-05-28T12:31:55.803Z,4.50
2019-05-28T12:32:55.442Z,4.20
2019-05-28T12:33:55.468Z,3.80
2019-05-28T12:34:55.443Z,5.20
2019-05-28T12:35:55.443Z,4.50
2019-05-28T12:36:55.443Z,5.10
2019-05-28T12:37:55.449Z,6.00
2019-05-28T12:38:55.447Z,4.10
2019-05-28T12:39:55.447Z,5.00
2019-05-28T12:40:55.451Z,4.50
2019-05-28T12:42:03.163Z,4.30
2019-05-28T12:42:55.447Z,4.50
2019-05-28T12:43:55.448Z,4.00
2019-05-28T12:45:08.832Z,5.20
2019-05-28T12:45:55.453Z,4.80
2019-05-28T12:46:55.453Z,4.10
2019-05-28T12:48:09.766Z,3.80
2019-05-28T12:48:55.453Z,4.60
2019-05-28T12:49:55.456Z,3.90
2019-05-28T12:50:55.456Z,5.80
2019-05-28T12:51:55.458Z,5.30
2019-05-28T12:52:55.459Z,6.30
2019-05-28T12:53:55.497Z,4.10
2019-05-28T12:54:55.464Z,6.10
2019-05-28T12:55:55.460Z,3.80
2019-05-28T12:56:55.464Z,4.60
2019-05-28T12:57:55.474Z,5.10
2019-05-28T12:58:55.461Z,3.80
2019-05-28T12:59:55.462Z,2.70
2019-05-28T13:00:55.465Z,2.50
2019-05-28T13:01:55.465Z,4.40
2019-05-28T13:02:55.474Z,3.80
2019-05-28T13:03:55.466Z,2.80
2019-05-28T13:04:55.462Z,4.10
2019-05-28T13:05:55.471Z,3.20
2019-05-28T13:06:55.469Z,5.50
2019-05-28T13:08:08.130Z,5.60
2019-05-28T13:08:55.473Z,3.70
2019-05-28T13:09:55.482Z,4.20
2019-05-28T13:10:55.471Z,4.70
2019-05-28T13:11:55.474Z,5.00
2019-05-28T13:12:55.490Z,5.20
2019-05-28T13:13:55.490Z,5.40
2019-05-28T13:14:55.477Z,7.00